Time;durP1;ratioP1;P1;durP2;ratioP2;P2;SDS_P1;SDS_P2;PMS_P1;PMS_P2;Temp;Humidity;BMP_temperature;BMP_pressure;BME280_temperature;BME280_humidity;BME280_pressure;Samples;Min_cycle;Max_cycle;Signal;HPM_P1;HPM_P2
2022/02/16 00:00:59;;;;;;;17.75;4.22;;;;;;;4.78;100.00;97684.75;5003857;28;20115;-58
2022/02/16 00:03:25;;;;;;;16.23;4.20;;;;;;;4.98;100.00;97689.44;5006147;28;20040;-58
2022/02/16 00:05:50;;;;;;;16.60;4.50;;;;;;;5.16;100.00;97688.13;5005893;28;20050;-58
2022/02/16 00:08:17;;;;;;;19.55;4.72;;;;;;;4.70;100.00;97691.81;5004936;28;20100;-58
2022/02/16 00:10:42;;;;;;;19.58;4.50;;;;;;;4.57;100.00;97687.78;5007004;28;20038;-56
2022/02/16 00:13:08;;;;;;;17.48;4.20;;;;;;;4.49;100.00;97679.38;5008177;28;20029;-57
2022/02/16 00:15:34;;;;;;;19.67;4.40;;;;;;;4.81;100.00;97681.22;5005358;28;20030;-57
2022/02/16 00:17:59;;;;;;;18.20;3.90;;;;;;;4.23;100.00;97675.63;5007640;28;20740;-59
2022/02/16 00:20:24;;;;;;;17.98;4.50;;;;;;;4.66;100.00;97679.84;5005797;28;20075;-57
2022/02/16 00:22:50;;;;;;;18.55;4.30;;;;;;;4.68;100.00;97670.31;5006144;28;20252;-56
2022/02/16 00:25:15;;;;;;;16.85;4.18;;;;;;;4.52;100.00;97668.97;5005771;28;20606;-57
2022/02/16 00:27:40;;;;;;;17.27;4.00;;;;;;;4.57;100.00;97665.38;5005777;28;20407;-56
2022/02/16 00:30:07;;;;;;;15.27;3.72;;;;;;;4.67;100.00;97663.47;5005902;28;20906;-58
2022/02/16 00:32:33;;;;;;;16.17;4.05;;;;;;;4.53;100.00;97660.34;5006092;28;20100;-57
2022/02/16 00:34:58;;;;;;;19.92;4.57;;;;;;;4.96;100.00;97644.69;5007386;28;20240;-58
2022/02/16 00:37:23;;;;;;;17.40;4.20;;;;;;;4.59;100.00;97655.03;5004413;28;20736;-58
2022/02/16 00:39:49;;;;;;;16.90;4.55;;;;;;;4.71;100.00;97644.44;5007292;28;20026;-56
2022/02/16 00:42:14;;;;;;;16.85;4.10;;;;;;;4.66;100.00;97646.25;5006211;28;20080;-56
2022/02/16 00:44:39;;;;;;;17.45;4.53;;;;;;;4.58;100.00;97643.00;5005523;28;20052;-58
2022/02/16 00:47:06;;;;;;;14.57;4.18;;;;;;;4.74;100.00;97648.66;5004220;28;20377;-57
2022/02/16 00:49:31;;;;;;;18.63;4.25;;;;;;;4.60;100.00;97634.34;5005491;28;20029;-57
2022/02/16 00:51:56;;;;;;;16.20;4.30;;;;;;;4.93;100.00;97631.00;5008570;28;20040;-58
2022/02/16 00:54:22;;;;;;;19.63;4.80;;;;;;;4.74;100.00;97635.75;5011944;28;20037;-57
2022/02/16 00:56:47;;;;;;;16.33;4.00;;;;;;;4.59;100.00;97634.38;5008897;28;20029;-59
2022/02/16 00:59:13;;;;;;;21.67;4.45;;;;;;;4.37;100.00;97640.00;5010811;28;20032;-58
2022/02/16 01:01:38;;;;;;;22.00;4.63;;;;;;;4.21;100.00;97642.09;5008672;28;20125;-58
2022/02/16 01:04:04;;;;;;;17.77;4.25;;;;;;;4.16;100.00;97646.50;5009731;28;20632;-59
2022/02/16 01:06:29;;;;;;;16.88;4.47;;;;;;;4.44;100.00;97641.56;5010340;28;21048;-57
2022/02/16 01:08:54;;;;;;;17.67;4.35;;;;;;;4.58;100.00;97645.59;5008023;28;20026;-57
2022/02/16 01:11:21;;;;;;;16.48;4.07;;;;;;;5.24;100.00;97640.56;5009570;28;20040;-59
2022/02/16 01:13:47;;;;;;;20.40;4.70;;;;;;;4.68;100.00;97641.91;5009302;28;20022;-57
2022/02/16 01:16:12;;;;;;;17.65;4.60;;;;;;;4.87;100.00;97644.06;5010277;28;20510;-58
2022/02/16 01:18:38;;;;;;;22.08;4.80;;;;;;;4.42;100.00;97633.00;5010405;28;20057;-58
2022/02/16 01:21:03;;;;;;;15.70;4.00;;;;;;;4.69;100.00;97619.50;5010018;28;20042;-58
2022/02/16 01:23:28;;;;;;;15.73;3.97;;;;;;;4.38;100.00;97626.22;5010403;28;20049;-58
2022/02/16 01:25:54;;;;;;;18.85;4.68;;;;;;;4.96;100.00;97610.22;5008792;28;20042;-59
2022/02/16 01:28:19;;;;;;;17.77;4.68;;;;;;;4.95;100.00;97606.81;5010340;28;20113;-59
2022/02/16 01:30:44;;;;;;;20.30;4.63;;;;;;;4.95;100.00;97611.13;5008535;28;20125;-58
2022/02/16 01:33:10;;;;;;;16.58;4.55;;;;;;;4.42;100.00;97616.69;5008632;28;20026;-57
2022/02/16 01:35:35;;;;;;;17.05;4.47;;;;;;;4.64;100.00;97611.88;5007741;28;20078;-58
2022/02/16 01:38:03;;;;;;;19.67;4.80;;;;;;;5.14;100.00;97609.78;5009189;28;20733;-58
2022/02/16 01:40:28;;;;;;;19.65;5.22;;;;;;;4.95;100.00;97606.81;5010543;28;20121;-58
2022/02/16 01:42:53;;;;;;;16.95;4.75;;;;;;;5.00;100.00;97599.78;5013285;28;20133;-58
2022/02/16 01:45:29;;;;;;;16.25;4.53;;;;;;;4.99;100.00;97597.25;5009218;28;20101;-58
2022/02/16 01:47:56;;;;;;;14.85;4.03;;;;;;;5.14;100.00;97596.84;5008887;28;20034;-58
2022/02/16 01:50:21;;;;;;;18.30;4.22;;;;;;;4.83;100.00;97592.47;5009792;28;20034;-57
2022/02/16 01:52:47;;;;;;;16.88;4.18;;;;;;;4.82;100.00;97590.75;5010460;28;20037;-58
2022/02/16 01:55:14;;;;;;;19.20;4.90;;;;;;;4.94;100.00;97588.75;5007502;28;20033;-58
2022/02/16 01:57:40;;;;;;;19.02;4.60;;;;;;;4.94;100.00;97578.41;5010446;28;20025;-57
2022/02/16 02:00:07;;;;;;;19.35;4.60;;;;;;;4.96;100.00;97576.63;5009710;28;20083;-58
2022/02/16 02:02:33;;;;;;;16.83;4.57;;;;;;;4.90;100.00;97566.47;5008598;28;20040;-57
2022/02/16 02:04:58;;;;;;;16.38;4.22;;;;;;;4.76;100.00;97559.03;5006815;28;20029;-58
2022/02/16 02:07:24;;;;;;;18.48;4.70;;;;;;;5.07;100.00;97561.69;5007283;28;20038;-58
2022/02/16 02:09:49;;;;;;;16.52;4.13;;;;;;;4.88;100.00;97550.16;5009515;28;20024;-58
2022/02/16 02:12:15;;;;;;;21.98;5.07;;;;;;;5.00;100.00;97544.69;5009539;28;20052;-57
2022/02/16 02:14:41;;;;;;;18.33;4.72;;;;;;;4.98;100.00;97546.44;5009867;28;20017;-58
2022/02/16 02:17:07;;;;;;;17.60;4.72;;;;;;;4.84;100.00;97541.63;5008090;28;20064;-57
2022/02/16 02:19:32;;;;;;;17.55;4.80;;;;;;;5.05;100.00;97531.63;5009655;28;20410;-56
2022/02/16 02:22:00;;;;;;;19.00;4.95;;;;;;;4.85;100.00;97529.53;5006514;28;20042;-57
2022/02/16 02:24:25;;;;;;;19.80;4.53;;;;;;;4.77;100.00;97517.66;5010021;28;20897;-57
2022/02/16 02:26:50;;;;;;;18.88;4.45;;;;;;;5.28;100.00;97523.25;5007060;28;20048;-56
2022/02/16 02:29:16;;;;;;;21.27;5.28;;;;;;;5.03;100.00;97522.16;5008129;28;20026;-57
2022/02/16 02:31:42;;;;;;;21.13;5.20;;;;;;;5.10;100.00;97514.25;5006654;28;20443;-57
2022/02/16 02:34:08;;;;;;;16.20;3.83;;;;;;;5.13;100.00;97507.25;5008305;28;20053;-58
2022/02/16 02:36:34;;;;;;;16.35;4.35;;;;;;;4.77;100.00;97512.50;5008617;28;20049;-58
2022/02/16 02:38:59;;;;;;;18.38;4.90;;;;;;;4.95;100.00;97515.50;5008239;28;20033;-58
2022/02/16 02:41:25;;;;;;;15.13;4.40;;;;;;;4.80;100.00;97511.59;5007706;28;20080;-58
2022/02/16 02:43:51;;;;;;;22.20;4.80;;;;;;;5.14;100.00;97503.78;5009365;28;20025;-59
2022/02/16 02:46:18;;;;;;;17.67;4.35;;;;;;;5.36;100.00;97498.00;5007982;28;20056;-56
2022/02/16 02:48:44;;;;;;;14.73;4.03;;;;;;;5.29;100.00;97493.91;5008975;28;20660;-58
2022/02/16 02:51:10;;;;;;;16.15;4.05;;;;;;;5.52;100.00;97491.53;5007599;28;20718;-57
2022/02/16 02:53:37;;;;;;;19.15;4.55;;;;;;;5.31;100.00;97487.81;5009870;28;20037;-57
2022/02/16 02:56:03;;;;;;;15.10;4.13;;;;;;;5.25;100.00;97490.56;5006312;28;20042;-56
2022/02/16 02:58:29;;;;;;;18.30;4.30;;;;;;;5.34;100.00;97494.63;5006895;28;20095;-57
2022/02/16 03:00:54;;;;;;;14.60;3.72;;;;;;;5.37;100.00;97481.63;5008136;28;20041;-58
2022/02/16 03:03:20;;;;;;;18.50;4.30;;;;;;;5.54;100.00;97476.78;5008589;28;20053;-56
2022/02/16 03:05:45;;;;;;;15.45;3.72;;;;;;;5.70;100.00;97476.38;5006456;28;20076;-57
2022/02/16 03:08:10;;;;;;;17.33;4.40;;;;;;;5.09;100.00;97464.28;5006566;28;20109;-58
2022/02/16 03:10:36;;;;;;;16.00;4.32;;;;;;;5.57;100.00;97476.72;5009188;28;21055;-58
2022/02/16 03:13:01;;;;;;;11.02;3.40;;;;;;;5.06;100.00;97463.53;5008204;28;20022;-57
2022/02/16 03:15:27;;;;;;;21.25;4.15;;;;;;;4.99;100.00;97460.25;5006317;28;20063;-58
2022/02/16 03:17:52;;;;;;;16.70;3.85;;;;;;;5.32;100.00;97453.28;5007879;28;20029;-57
2022/02/16 03:20:17;;;;;;;19.90;4.47;;;;;;;5.30;100.00;97446.47;5005986;28;20033;-58
2022/02/16 03:22:43;;;;;;;15.45;3.85;;;;;;;5.86;100.00;97443.91;5005555;28;20025;-58
2022/02/16 03:25:10;;;;;;;17.10;3.92;;;;;;;5.27;100.00;97444.81;5005702;28;20033;-58
2022/02/16 03:27:37;;;;;;;17.88;4.20;;;;;;;5.41;100.00;97450.44;5008100;28;20029;-58
2022/02/16 03:30:06;;;;;;;18.38;3.90;;;;;;;5.36;100.00;97441.13;5006380;28;20119;-57
2022/02/16 03:32:31;;;;;;;23.92;4.35;;;;;;;5.59;100.00;97441.28;5007041;28;20066;-58
2022/02/16 03:34:57;;;;;;;14.45;3.45;;;;;;;5.80;100.00;97447.53;5006705;28;20167;-57
2022/02/16 03:37:22;;;;;;;14.07;3.58;;;;;;;5.80;100.00;97437.19;5015258;28;20088;-58
2022/02/16 03:39:47;;;;;;;19.98;4.05;;;;;;;5.32;100.00;97435.19;5008045;28;20538;-57
2022/02/16 03:42:14;;;;;;;15.43;3.63;;;;;;;5.60;100.00;97435.22;5005946;28;20042;-58
2022/02/16 03:44:40;;;;;;;17.30;3.95;;;;;;;5.51;100.00;97435.47;5008276;28;20057;-57
2022/02/16 03:47:06;;;;;;;14.05;3.58;;;;;;;5.80;100.00;97438.94;5005452;28;20537;-58
2022/02/16 03:49:31;;;;;;;17.35;3.80;;;;;;;5.57;100.00;97421.56;5008495;28;20787;-59
2022/02/16 03:51:56;;;;;;;16.60;3.92;;;;;;;5.84;100.00;97419.00;5005691;28;20038;-57
2022/02/16 03:54:22;;;;;;;15.98;3.58;;;;;;;5.78;100.00;97412.28;5007830;28;20029;-58
2022/02/16 03:56:47;;;;;;;19.50;3.95;;;;;;;5.52;100.00;97416.50;5008014;28;20456;-57
2022/02/16 03:59:12;;;;;;;17.67;4.13;;;;;;;5.63;100.00;97420.50;5007182;28;20029;-58
2022/02/16 04:01:38;;;;;;;14.23;3.53;;;;;;;5.93;100.00;97422.13;5006465;28;20052;-57
2022/02/16 04:04:04;;;;;;;17.88;3.75;;;;;;;5.81;100.00;97412.19;5007929;28;20930;-60
2022/02/16 04:06:29;;;;;;;15.20;3.80;;;;;;;6.12;100.00;97416.38;5009270;28;20029;-58
2022/02/16 04:08:55;;;;;;;18.50;4.07;;;;;;;5.43;100.00;97410.75;5006312;28;20025;-58
2022/02/16 04:11:21;;;;;;;13.98;3.58;;;;;;;6.39;100.00;97421.56;5005567;28;20069;-58
2022/02/16 04:13:48;;;;;;;13.90;3.78;;;;;;;5.37;100.00;97411.78;5005462;28;20022;-58
2022/02/16 04:16:13;;;;;;;17.23;4.10;;;;;;;5.63;100.00;97412.75;5005933;28;20041;-57
2022/02/16 04:18:39;;;;;;;15.32;3.95;;;;;;;5.46;100.00;97421.88;5006777;28;20030;-58
2022/02/16 04:21:04;;;;;;;16.92;4.00;;;;;;;5.75;100.00;97422.69;5003957;28;20033;-58
2022/02/16 04:23:30;;;;;;;15.15;3.95;;;;;;;5.42;100.00;97415.06;5006555;28;20112;-57
2022/02/16 04:25:55;;;;;;;16.45;4.05;;;;;;;5.59;100.00;97418.00;5006398;28;20045;-56
2022/02/16 04:28:21;;;;;;;21.90;4.28;;;;;;;6.05;100.00;97404.56;5005541;28;20018;-58
2022/02/16 04:30:48;;;;;;;15.45;4.00;;;;;;;5.92;100.00;97404.91;5005761;28;20219;-57
2022/02/16 04:33:13;;;;;;;14.20;3.83;;;;;;;5.51;100.00;97401.03;5007056;28;20022;-57
2022/02/16 04:35:39;;;;;;;17.38;4.30;;;;;;;5.17;100.00;97394.28;5004202;28;20041;-59
2022/02/16 04:38:04;;;;;;;19.58;4.40;;;;;;;5.80;100.00;97392.38;5005528;28;20120;-57
2022/02/16 04:40:29;;;;;;;19.63;4.72;;;;;;;5.60;100.00;97393.81;5003596;28;20392;-58
2022/02/16 04:42:55;;;;;;;17.20;4.22;;;;;;;5.80;100.00;97385.44;5007390;28;20608;-58
2022/02/16 04:45:20;;;;;;;15.65;4.10;;;;;;;5.87;100.00;97380.09;5004913;28;20136;-58
2022/02/16 04:47:45;;;;;;;17.48;4.25;;;;;;;5.67;100.00;97373.78;5005475;28;20022;-58
2022/02/16 04:50:11;;;;;;;17.70;4.22;;;;;;;5.77;100.00;97370.03;5004820;28;20048;-59
2022/02/16 04:52:36;;;;;;;16.90;4.03;;;;;;;5.42;100.00;97368.50;5006753;28;20696;-59
2022/02/16 04:55:07;;;;;;;13.40;3.70;;;;;;;5.28;100.00;97370.69;5005961;28;20022;-60
2022/02/16 04:57:33;;;;;;;15.93;4.55;;;;;;;5.41;100.00;97370.25;5005084;28;20038;-58
2022/02/16 04:59:59;;;;;;;17.02;4.07;;;;;;;5.42;100.00;97358.16;5007420;28;20076;-60
2022/02/16 05:02:28;;;;;;;16.38;4.00;;;;;;;5.25;100.00;97360.44;5004983;28;20033;-59
2022/02/16 05:04:54;;;;;;;21.75;4.97;;;;;;;5.05;100.00;97356.69;5005590;28;20022;-57
2022/02/16 05:07:20;;;;;;;15.07;3.83;;;;;;;5.60;100.00;97352.41;5005259;28;20041;-58
2022/02/16 05:09:46;;;;;;;17.80;4.53;;;;;;;5.07;100.00;97352.31;5006462;28;20056;-58
2022/02/16 05:12:11;;;;;;;17.13;4.05;;;;;;;5.86;100.00;97353.34;5005160;28;20065;-59
2022/02/16 05:14:37;;;;;;;21.05;4.32;;;;;;;6.24;100.00;97360.78;5006927;28;20030;-58
2022/02/16 05:17:02;;;;;;;20.48;4.30;;;;;;;5.67;100.00;97358.25;5005528;28;20160;-58
2022/02/16 05:19:28;;;;;;;17.05;4.15;;;;;;;5.80;100.00;97348.38;5007364;28;20475;-58
2022/02/16 05:21:53;;;;;;;12.57;3.67;;;;;;;5.65;100.00;97351.47;5006426;28;20052;-59
2022/02/16 05:24:19;;;;;;;16.73;3.67;;;;;;;5.62;100.00;97346.38;5005294;28;20498;-57
2022/02/16 05:26:45;;;;;;;15.48;4.05;;;;;;;5.26;100.00;97341.47;5006927;28;20080;-58
2022/02/16 05:29:11;;;;;;;17.67;4.57;;;;;;;5.38;100.00;97335.88;5005203;28;20722;-56
2022/02/16 05:31:36;;;;;;;18.42;4.10;;;;;;;5.43;100.00;97334.00;5006304;28;20038;-58
2022/02/16 05:34:02;;;;;;;20.17;4.10;;;;;;;5.10;100.00;97334.13;5004643;28;20390;-59
2022/02/16 05:36:27;;;;;;;16.88;3.80;;;;;;;5.16;100.00;97333.94;5005020;28;20046;-58
2022/02/16 05:38:52;;;;;;;19.90;4.45;;;;;;;5.46;100.00;97323.59;5008058;28;20041;-58
2022/02/16 05:41:18;;;;;;;20.10;4.53;;;;;;;5.38;100.00;97321.22;5006649;28;20141;-58
2022/02/16 05:43:43;;;;;;;17.80;4.30;;;;;;;5.03;100.00;97319.69;5008567;28;20128;-58
2022/02/16 05:46:09;;;;;;;19.80;4.05;;;;;;;4.85;100.00;97320.25;5007071;28;20090;-58
2022/02/16 05:48:34;;;;;;;19.90;4.38;;;;;;;4.96;100.00;97323.34;5009500;28;20043;-59
2022/02/16 05:50:59;;;;;;;41.97;5.78;;;;;;;5.45;100.00;97324.47;5009400;28;20044;-58
2022/02/16 05:53:25;;;;;;;204.13;12.32;;;;;;;6.35;100.00;97330.19;5008267;28;20143;-57
2022/02/16 05:55:50;;;;;;;14.43;3.88;;;;;;;6.84;100.00;97332.78;5008851;28;20103;-61
2022/02/16 05:58:16;;;;;;;15.77;3.90;;;;;;;7.21;100.00;97315.84;5009578;28;20026;-58
2022/02/16 06:00:41;;;;;;;18.65;3.88;;;;;;;6.10;100.00;97306.84;5007064;28;20034;-60
2022/02/16 06:03:06;;;;;;;12.52;3.05;;;;;;;6.75;100.00;97303.69;5008163;28;20049;-58
2022/02/16 06:05:32;;;;;;;10.25;2.88;;;;;;;6.52;100.00;97301.06;5012156;28;20479;-59
2022/02/16 06:07:57;;;;;;;24.95;3.60;;;;;;;5.84;100.00;97298.19;5011030;28;20680;-58
2022/02/16 06:10:22;;;;;;;11.30;3.15;;;;;;;6.24;100.00;97289.09;5009510;28;20040;-59
2022/02/16 06:12:48;;;;;;;21.38;4.35;;;;;;;7.50;100.00;97292.19;5009808;28;20079;-57
2022/02/16 06:15:13;;;;;;;9.45;2.78;;;;;;;7.94;100.00;97278.31;5009179;28;20690;-58
2022/02/16 06:17:39;;;;;;;11.98;3.28;;;;;;;7.47;100.00;97276.72;5009102;28;20021;-58
2022/02/16 06:20:05;;;;;;;13.52;3.60;;;;;;;5.43;100.00;97278.88;5012080;28;20585;-59
2022/02/16 06:22:30;;;;;;;14.75;3.25;;;;;;;5.57;100.00;97272.34;5011833;28;20041;-57
2022/02/16 06:24:55;;;;;;;17.30;3.90;;;;;;;5.46;100.00;97264.09;5012307;28;20045;-55
2022/02/16 06:27:22;;;;;;;12.13;3.13;;;;;;;5.91;100.00;97267.78;5011190;28;20044;-57
2022/02/16 06:29:47;;;;;;;15.68;3.30;;;;;;;5.55;100.00;97273.28;5011984;28;20036;-57
2022/02/16 06:32:13;;;;;;;13.25;3.10;;;;;;;5.75;100.00;97267.44;5009974;28;20045;-57
2022/02/16 06:34:38;;;;;;;12.93;3.38;;;;;;;5.89;100.00;97262.66;5012203;28;20022;-57
2022/02/16 06:37:03;;;;;;;15.63;3.55;;;;;;;5.55;100.00;97257.75;5010802;28;20148;-58
2022/02/16 06:39:29;;;;;;;14.10;3.53;;;;;;;5.81;100.00;97267.25;5011277;28;20061;-58
2022/02/16 06:41:54;;;;;;;10.13;2.92;;;;;;;5.59;100.00;97267.97;5009494;28;20754;-57
2022/02/16 06:44:19;;;;;;;18.30;3.92;;;;;;;5.75;100.00;97264.84;5011809;28;20021;-58
2022/02/16 06:46:45;;;;;;;15.18;3.30;;;;;;;6.24;100.00;97263.22;5010893;28;20064;-59
2022/02/16 06:49:10;;;;;;;13.80;3.30;;;;;;;6.24;100.00;97255.44;5009480;28;20116;-58
2022/02/16 06:51:37;;;;;;;14.00;3.22;;;;;;;5.11;100.00;97263.47;5010375;28;20038;-58
2022/02/16 06:54:02;;;;;;;13.57;3.42;;;;;;;6.08;100.00;97255.13;5010039;28;20678;-57
2022/02/16 06:56:28;;;;;;;20.42;3.90;;;;;;;5.48;100.00;97257.13;5010254;28;20053;-58
2022/02/16 06:58:54;;;;;;;15.35;3.65;;;;;;;5.47;100.00;97255.41;5011018;28;20057;-57
2022/02/16 07:01:19;;;;;;;16.35;3.55;;;;;;;5.85;100.00;97242.97;5011759;28;20041;-57
2022/02/16 07:03:44;;;;;;;17.95;3.90;;;;;;;5.32;100.00;97232.66;5009907;28;20403;-58
2022/02/16 07:06:10;;;;;;;13.23;3.30;;;;;;;5.61;100.00;97239.47;5009628;28;20095;-58
2022/02/16 07:08:35;;;;;;;14.88;3.47;;;;;;;5.70;100.00;97231.38;5009158;28;20025;-59
2022/02/16 07:11:02;;;;;;;16.58;3.30;;;;;;;5.70;100.00;97241.75;5010875;28;20112;-57
2022/02/16 07:13:27;;;;;;;15.82;3.67;;;;;;;5.63;100.00;97242.00;5010638;28;20026;-58
2022/02/16 07:15:52;;;;;;;15.50;3.55;;;;;;;5.88;100.00;97227.34;5009842;28;20046;-57
2022/02/16 07:18:18;;;;;;;14.07;3.28;;;;;;;6.07;100.00;97224.97;5012066;28;20103;-58
2022/02/16 07:20:44;;;;;;;13.18;3.20;;;;;;;5.70;100.00;97238.31;5010884;28;20355;-59
2022/02/16 07:23:09;;;;;;;14.35;2.97;;;;;;;5.98;100.00;97233.06;5011783;28;20034;-59
2022/02/16 07:25:35;;;;;;;15.07;3.30;;;;;;;6.49;100.00;97216.56;5009409;28;20058;-59
2022/02/16 07:28:00;;;;;;;14.15;3.60;;;;;;;5.72;100.00;97227.00;5010090;28;20470;-57
2022/02/16 07:30:25;;;;;;;11.93;2.95;;;;;;;5.62;100.00;97206.66;5012697;28;20356;-59
2022/02/16 07:32:51;;;;;;;13.63;3.33;;;;;;;6.04;100.00;97203.53;5010006;28;20126;-58
2022/02/16 07:35:16;;;;;;;13.85;3.10;;;;;;;5.41;100.00;97196.97;5006875;28;20376;-57
2022/02/16 07:37:42;;;;;;;12.65;2.80;;;;;;;6.31;100.00;97180.97;5010148;28;20026;-57
2022/02/16 07:40:08;;;;;;;13.88;2.90;;;;;;;5.87;100.00;97188.56;5009293;28;20096;-59
2022/02/16 07:42:34;;;;;;;16.08;3.53;;;;;;;6.32;100.00;97190.41;5008130;28;20032;-58
2022/02/16 07:44:59;;;;;;;16.55;3.20;;;;;;;6.00;100.00;97183.84;5009313;28;20029;-58
2022/02/16 07:47:25;;;;;;;14.27;2.97;;;;;;;6.56;100.00;97173.97;5010900;28;20497;-58
2022/02/16 07:49:50;;;;;;;15.50;2.85;;;;;;;6.18;100.00;97175.41;5011336;28;20067;-59
2022/02/16 07:52:16;;;;;;;13.85;2.80;;;;;;;6.91;100.00;97168.28;5009180;28;20037;-57
2022/02/16 07:54:42;;;;;;;16.05;3.63;;;;;;;5.80;100.00;97178.41;5009304;28;20041;-56
2022/02/16 07:57:08;;;;;;;10.50;2.72;;;;;;;6.26;100.00;97157.81;5011719;28;20029;-58
2022/02/16 07:59:35;;;;;;;10.32;2.55;;;;;;;6.72;100.00;97148.28;5009077;28;20033;-59
2022/02/16 08:02:02;;;;;;;11.15;2.50;;;;;;;5.96;100.00;97152.88;5009288;28;20046;-58
2022/02/16 08:04:29;;;;;;;11.90;2.70;;;;;;;6.07;100.00;97154.25;5010390;28;20033;-59
2022/02/16 08:06:54;;;;;;;10.45;2.60;;;;;;;6.40;100.00;97151.31;5007237;28;20046;-58
2022/02/16 08:09:20;;;;;;;10.63;2.80;;;;;;;5.98;100.00;97148.47;5011412;28;20095;-58
2022/02/16 08:11:47;;;;;;;11.98;2.90;;;;;;;6.44;100.00;97161.47;5010580;28;20053;-59
2022/02/16 08:14:13;;;;;;;12.32;2.67;;;;;;;6.59;100.00;97151.44;5009218;28;20104;-57
2022/02/16 08:16:39;;;;;;;12.02;2.83;;;;;;;6.53;100.00;97152.50;5008476;28;20771;-58
2022/02/16 08:19:07;;;;;;;11.10;2.47;;;;;;;6.69;100.00;97148.44;5009901;28;20029;-58
2022/02/16 08:21:33;;;;;;;12.82;2.83;;;;;;;6.63;100.00;97146.06;5009409;28;20044;-59
2022/02/16 08:23:59;;;;;;;12.82;2.95;;;;;;;6.71;100.00;97131.06;5010885;28;20029;-57
2022/02/16 08:26:24;;;;;;;12.18;2.67;;;;;;;6.54;100.00;97117.91;5013253;28;20037;-58
2022/02/16 08:28:50;;;;;;;15.52;2.75;;;;;;;6.51;100.00;97123.22;5009007;28;20029;-57
2022/02/16 08:31:15;;;;;;;12.15;2.60;;;;;;;6.53;100.00;97111.91;5010582;28;20128;-58
2022/02/16 08:33:41;;;;;;;11.55;2.65;;;;;;;6.72;100.00;97111.16;5010140;28;20025;-58
2022/02/16 08:36:07;;;;;;;13.60;2.90;;;;;;;6.60;100.00;97107.34;5009942;28;20033;-59
2022/02/16 08:38:33;;;;;;;10.65;2.38;;;;;;;6.80;100.00;97103.09;5008209;28;20661;-57
2022/02/16 08:40:58;;;;;;;10.90;2.40;;;;;;;7.20;100.00;97111.84;4994565;28;20491;-58
2022/02/16 08:43:27;;;;;;;12.82;2.95;;;;;;;7.12;100.00;97115.59;5010535;28;20120;-58
2022/02/16 08:45:54;;;;;;;9.68;2.60;;;;;;;7.19;100.00;97110.16;5008110;28;20041;-58
2022/02/16 08:48:23;;;;;;;10.00;2.47;;;;;;;7.32;100.00;97106.13;5008618;28;20022;-57
2022/02/16 08:50:49;;;;;;;13.57;2.90;;;;;;;6.96;100.00;97093.78;5009539;28;20360;-58
2022/02/16 08:53:14;;;;;;;10.30;2.60;;;;;;;7.65;100.00;97090.03;5008197;28;20091;-58
2022/02/16 08:55:39;;;;;;;13.40;2.60;;;;;;;7.98;100.00;97086.84;5016757;28;20395;-58
2022/02/16 08:58:05;;;;;;;12.23;2.90;;;;;;;8.00;100.00;97082.44;5011352;28;20029;-57
2022/02/16 09:00:31;;;;;;;10.63;2.47;;;;;;;7.68;100.00;97076.91;5008794;28;20057;-59
2022/02/16 09:02:56;;;;;;;10.30;2.75;;;;;;;8.51;100.00;97067.97;5010018;28;20119;-58
2022/02/16 09:05:21;;;;;;;9.65;2.60;;;;;;;7.87;100.00;97072.59;5009492;28;20037;-59
2022/02/16 09:07:47;;;;;;;10.18;2.50;;;;;;;7.95;100.00;97080.03;5009624;28;20117;-58
2022/02/16 09:10:12;;;;;;;10.95;2.72;;;;;;;8.47;100.00;97063.81;5009022;28;20038;-57
2022/02/16 09:12:38;;;;;;;15.95;2.83;;;;;;;8.39;100.00;97068.50;5012169;28;20048;-59
2022/02/16 09:15:04;;;;;;;12.65;3.00;;;;;;;7.97;100.00;97061.78;5013262;28;20034;-56
2022/02/16 09:17:31;;;;;;;13.95;2.83;;;;;;;7.85;100.00;97053.66;5015576;28;20026;-58
2022/02/16 09:19:57;;;;;;;12.57;2.78;;;;;;;8.01;100.00;97052.94;5014307;28;20088;-58
2022/02/16 09:22:23;;;;;;;10.02;2.45;;;;;;;8.45;100.00;97047.44;5015738;28;20053;-58
2022/02/16 09:24:49;;;;;;;11.70;2.60;;;;;;;8.80;100.00;97043.13;5012628;28;20123;-58
2022/02/16 09:27:16;;;;;;;9.18;2.25;;;;;;;8.42;100.00;97034.63;5013132;28;20038;-59
2022/02/16 09:29:42;;;;;;;11.43;2.70;;;;;;;8.91;100.00;97024.41;5013597;28;20136;-58
2022/02/16 09:32:09;;;;;;;9.00;2.17;;;;;;;9.07;100.00;97025.31;5010249;28;20128;-57
2022/02/16 09:34:34;;;;;;;10.95;2.58;;;;;;;8.18;100.00;97027.03;5012841;28;20022;-57
2022/02/16 09:37:00;;;;;;;11.93;2.65;;;;;;;8.22;100.00;97025.97;5011510;28;20045;-58
2022/02/16 09:39:25;;;;;;;11.23;2.30;;;;;;;8.24;100.00;97021.53;5013718;28;20685;-60
2022/02/16 09:41:51;;;;;;;11.25;2.83;;;;;;;8.41;100.00;97022.50;5012070;28;20052;-59
2022/02/16 09:44:45;;;;;;;9.48;2.30;;;;;;;8.36;100.00;97016.69;5013934;28;20033;-58
2022/02/16 09:47:12;;;;;;;8.43;2.10;;;;;;;8.25;100.00;97012.00;5009392;28;20042;-58
2022/02/16 09:49:38;;;;;;;10.27;2.72;;;;;;;8.50;100.00;97009.09;5012529;28;20491;-58
2022/02/16 09:52:05;;;;;;;12.00;2.53;;;;;;;8.64;100.00;97001.47;5013995;28;20076;-59
2022/02/16 09:54:30;;;;;;;9.50;2.30;;;;;;;8.22;100.00;97009.56;5011619;28;20037;-57
2022/02/16 09:56:56;;;;;;;11.93;2.53;;;;;;;9.12;100.00;97012.09;5009495;28;20037;-57
2022/02/16 09:59:21;;;;;;;16.90;2.78;;;;;;;8.30;100.00;97003.06;5012611;28;20099;-58
2022/02/16 10:01:58;;;;;;;19.25;3.00;;;;;;;8.42;100.00;96987.84;5012034;28;20225;-58
2022/02/16 10:04:25;;;;;;;13.13;2.90;;;;;;;8.81;100.00;96995.44;5013544;28;20029;-58
2022/02/16 10:06:52;;;;;;;16.17;2.80;;;;;;;8.59;100.00;96998.25;5013292;28;20056;-58
2022/02/16 10:09:29;;;;;;;17.83;3.00;;;;;;;9.01;100.00;96999.63;5011862;28;20106;-59
2022/02/16 10:12:05;;;;;;;15.82;2.50;;;;;;;8.32;100.00;96991.75;5012103;28;20034;-58
2022/02/16 10:14:35;;;;;;;11.63;2.50;;;;;;;8.50;100.00;96983.09;5011675;28;20213;-59
2022/02/16 10:17:16;;;;;;;14.07;2.72;;;;;;;8.31;100.00;96988.34;5011049;28;20038;-58
2022/02/16 10:19:53;;;;;;;14.30;2.63;;;;;;;8.91;100.00;96985.41;5013114;28;20034;-58
2022/02/16 10:22:23;;;;;;;14.25;2.67;;;;;;;9.13;100.00;96986.91;5011963;28;20041;-57
2022/02/16 10:24:50;;;;;;;13.18;2.83;;;;;;;8.71;100.00;96985.56;5011286;28;20103;-57
2022/02/16 10:27:16;;;;;;;11.05;2.65;;;;;;;8.53;100.00;96975.16;5011485;28;20038;-58
2022/02/16 10:29:43;;;;;;;9.43;2.20;;;;;;;8.17;100.00;96976.00;5011537;28;20029;-58
2022/02/16 10:32:10;;;;;;;11.20;2.50;;;;;;;8.40;100.00;96969.69;5009170;28;20049;-56
2022/02/16 10:34:55;;;;;;;10.43;2.17;;;;;;;8.27;100.00;96979.84;5011118;28;20119;-57
2022/02/16 10:37:41;;;;;;;9.85;2.42;;;;;;;8.71;100.00;96977.75;5008888;28;20038;-58
2022/02/16 10:40:14;;;;;;;10.95;2.70;;;;;;;9.17;100.00;96975.44;5011416;28;20037;-57
2022/02/16 10:42:56;;;;;;;9.73;2.30;;;;;;;9.33;100.00;96968.50;4990113;28;20038;-58
2022/02/16 10:45:24;;;;;;;9.60;2.35;;;;;;;9.31;100.00;96969.53;4995715;28;20054;-56
2022/02/16 10:47:53;;;;;;;10.82;2.40;;;;;;;9.64;100.00;96966.88;5011938;28;20037;-58
2022/02/16 10:50:23;;;;;;;15.05;2.67;;;;;;;9.07;100.00;96962.91;5012357;28;20819;-58
2022/02/16 10:52:56;;;;;;;12.05;2.83;;;;;;;9.12;100.00;96959.25;5010919;28;20050;-58
2022/02/16 10:55:35;;;;;;;9.10;2.20;;;;;;;9.09;100.00;96951.59;5011917;28;20124;-56
2022/02/16 10:58:03;;;;;;;9.48;2.40;;;;;;;9.18;100.00;96948.50;5011767;28;20067;-58
2022/02/16 11:00:30;;;;;;;9.02;2.38;;;;;;;9.30;100.00;96934.84;5009920;28;20949;-57
2022/02/16 11:02:57;;;;;;;10.95;2.45;;;;;;;9.12;100.00;96938.44;5010718;28;20452;-58
2022/02/16 11:05:24;;;;;;;10.57;2.45;;;;;;;9.65;100.00;96927.75;5009767;28;20492;-57
2022/02/16 11:07:50;;;;;;;9.45;2.38;;;;;;;9.21;100.00;96930.97;5010056;28;20603;-57
2022/02/16 11:10:19;;;;;;;8.35;2.20;;;;;;;9.57;100.00;96923.88;5010443;28;20014;-57
2022/02/16 11:12:45;;;;;;;10.20;2.33;;;;;;;8.92;100.00;96911.69;5010967;28;20020;-58
2022/02/16 11:15:11;;;;;;;8.90;2.42;;;;;;;9.28;100.00;96918.47;5008356;28;20025;-58
2022/02/16 11:17:37;;;;;;;15.02;2.90;;;;;;;9.42;100.00;96905.56;5011883;28;20022;-58
2022/02/16 11:20:18;;;;;;;10.55;2.50;;;;;;;8.82;100.00;96900.06;5010676;28;20029;-56
2022/02/16 11:22:50;;;;;;;13.00;2.75;;;;;;;8.61;100.00;96894.22;5010274;28;20096;-57